CNR6 weather

Carleton Place Airport
Carleton Place, Ontario, Canada

Public forecast

Using degrees Celsius for public forecast. Weather courtesy of forecast.io.

Closest aviation weather report (METAR) to Carleton Place Airport

Closest report is Ottawa Macdonald-Cartier International Airport, 23.3 nm (43.1 km) NE. Retrieved 2020/06/01 23:00 UTC (50 minutes ago):

CYOW 012300Z 11007KT 15SM FEW055 FEW080 BKN250 17/05 A3001 RMK SC1AC1CI4 AC TR CU CLD ASOCTD SLP165 DENSITY ALT 600FT

Closest aviation forecast (TAF) to Carleton Place Airport

Closest forecast is Ottawa Macdonald-Cartier International Airport, 23.3 nm (43.1 km) NE. Retrieved 2020/06/01 21:42 UTC (2 hours ago):

TAF TAF CYOW 012038Z 0121/0218 20010G20KT P6SM SCT060 TEMPO 0121/0201 BKN060 BECMG 0123/0201 06008KT FM020100 06008KT P6SM FEW120 SCT220 FM021000 06005KT P6SM BKN080 BECMG 0214/0216 22012KT FM021600 22012KT P6SM -SHRA BKN040 OVC080 RMK NXT FCST BY 020000Z